Time,TemperatureF,DewpointF,PressureIn,WindDirection,WindDirectionDegrees,WindSpeedMPH,WindSpeedGustMPH,Humidity,HourlyPrecipIn,Conditions,Clouds,dailyrainin,SoftwareType,DateUTC
2013-07-04 00:11:00,71.0,68.0,-100.00,West,265,0.0,0.0,92,0.00,,,-99.99,,2013-07-04 04:11:00,
2013-07-04 00:22:00,71.0,68.0,-100.00,West,265,0.0,0.0,92,0.00,,,-99.99,,2013-07-04 04:22:00,
2013-07-04 00:33:00,71.0,68.0,-100.00,SE,130,0.0,0.0,92,0.00,,,-99.99,,2013-07-04 04:33:00,
2013-07-04 00:52:00,70.0,68.0,-100.00,SE,130,0.0,0.0,92,0.00,,,-99.99,,2013-07-04 04:52:00,
2013-07-04 01:12:00,71.0,68.0,-100.00,SW,215,0.0,0.0,92,0.00,,,-99.99,,2013-07-04 05:12:00,
2013-07-04 01:22:00,71.0,68.0,-100.00,SW,230,0.0,0.0,92,0.55,,,-99.99,,2013-07-04 05:22:00,
2013-07-04 01:33:00,70.0,68.0,-100.00,SW,225,0.0,0.0,92,0.00,,,-99.99,,2013-07-04 05:33:00,
2013-07-04 01:52:00,70.0,68.0,-100.00,SW,225,0.0,0.0,92,0.00,,,-99.99,,2013-07-04 05:52:00,
2013-07-04 02:11:00,70.0,68.0,-100.00,North,350,0.0,0.0,92,0.00,,,-99.99,,2013-07-04 06:11:00,
2013-07-04 03:52:00,69.0,67.0,-100.00,NNW,345,0.0,1.0,92,0.00,,,-99.99,,2013-07-04 07:52:00,
2013-07-04 04:22:00,69.0,67.0,-100.00,NNW,340,0.0,1.0,92,0.00,,,-99.99,,2013-07-04 08:22:00,
2013-07-04 04:42:00,69.0,67.0,-100.00,NE,55,0.0,0.0,92,0.55,,,-99.99,,2013-07-04 08:42:00,
2013-07-04 05:11:00,70.0,67.0,-100.00,North,355,0.0,1.0,93,0.00,,,-99.99,,2013-07-04 09:11:00,
2013-07-04 05:32:00,70.0,67.0,-100.00,NNW,330,0.0,0.0,92,0.00,,,-99.99,,2013-07-04 09:32:00,
2013-07-04 05:42:00,70.0,68.0,-100.00,WSW,245,0.0,0.0,92,0.00,,,-99.99,,2013-07-04 09:42:00,
2013-07-04 05:52:00,70.0,68.0,-100.00,North,350,0.0,1.0,93,1.10,,,-99.99,,2013-07-04 09:52:00,
2013-07-04 06:01:00,70.0,68.0,-100.00,ENE,70,0.0,0.0,92,1.10,,,-99.99,,2013-07-04 10:01:00,
2013-07-04 06:11:00,70.0,68.0,-100.00,NNW,340,0.0,0.0,93,0.00,,,-99.99,,2013-07-04 10:11:00,
2013-07-04 06:22:00,70.0,68.0,-100.00,NNW,335,0.0,0.0,93,0.00,,,-99.99,,2013-07-04 10:22:00,
2013-07-04 06:34:00,70.0,68.0,-100.00,WSW,245,0.0,0.0,93,0.00,,,-99.99,,2013-07-04 10:34:00,
2013-07-04 06:43:00,70.0,67.0,-100.00,NE,55,0.0,0.0,93,0.00,,,-99.99,,2013-07-04 10:43:00,
2013-07-04 06:53:00,70.0,68.0,-100.00,NW,320,0.0,0.0,93,0.55,,,-99.99,,2013-07-04 10:53:00,
2013-07-04 07:53:00,70.0,68.0,-100.00,WSW,240,0.0,0.0,93,0.00,,,-99.99,,2013-07-04 11:53:00,
2013-07-04 08:12:00,70.0,68.0,-100.00,NNE,15,0.0,0.0,93,0.00,,,-99.99,,2013-07-04 12:12:00,
2013-07-04 08:22:00,71.0,69.0,-100.00,SE,130,0.0,0.0,93,0.00,,,-99.99,,2013-07-04 12:22:00,
2013-07-04 08:33:00,71.0,69.0,-100.00,NNW,340,0.0,0.0,93,0.00,,,-99.99,,2013-07-04 12:33:00,
2013-07-04 08:43:00,71.0,69.0,-100.00,NW,320,0.0,0.0,93,0.00,,,-99.99,,2013-07-04 12:43:00,
2013-07-04 08:52:00,71.0,69.0,-100.00,NNW,340,0.0,0.0,92,0.00,,,-99.99,,2013-07-04 12:52:00,
2013-07-04 09:02:00,71.0,69.0,-100.00,NW,320,0.0,0.0,93,0.00,,,-99.99,,2013-07-04 13:02:00,
2013-07-04 09:12:00,72.0,70.0,-100.00,East,100,0.0,2.0,92,0.00,,,-99.99,,2013-07-04 13:12:00,
2013-07-04 09:23:00,72.0,70.0,-100.00,West,280,0.0,0.0,92,0.00,,,-99.99,,2013-07-04 13:23:00,
2013-07-04 09:53:00,74.0,71.0,-100.00,NE,50,0.0,2.0,91,0.00,,,-99.99,,2013-07-04 13:53:00,
2013-07-04 10:12:00,74.0,71.0,-100.00,North,0,0.0,3.0,89,0.00,,,-99.99,,2013-07-04 14:12:00,
2013-07-04 10:53:00,76.0,71.0,-100.00,NNE,15,0.0,2.0,84,0.00,,,-99.99,,2013-07-04 14:53:00,
2013-07-04 12:11:00,79.0,69.0,-100.00,East,90,1.0,6.0,72,0.00,,,-99.99,,2013-07-04 16:11:00,
2013-07-04 12:33:00,81.0,69.0,-100.00,SE,125,1.0,5.0,67,0.00,,,-99.99,,2013-07-04 16:33:00,
2013-07-04 13:34:00,82.0,70.0,-100.00,ESE,120,0.0,3.0,67,0.00,,,-99.99,,2013-07-04 17:34:00,
2013-07-04 19:43:00,78.0,69.0,-100.00,NW,325,0.0,1.0,74,0.00,,,-99.99,,2013-07-04 23:43:00,
2013-07-04 20:52:00,76.0,68.0,-100.00,NW,310,0.0,0.0,77,0.00,,,-99.99,,2013-07-05 00:52:00,
2013-07-04 21:22:00,75.0,68.0,-100.00,WNW,295,0.0,0.0,79,0.00,,,-99.99,,2013-07-05 01:22:00,
2013-07-04 22:42:00,72.0,68.0,-100.00,SSW,200,0.0,0.0,86,0.00,,,-99.99,,2013-07-05 02:42:00,
2013-07-04 23:11:00,72.0,68.0,-100.00,NW,320,0.0,0.0,88,0.00,,,-99.99,,2013-07-05 03:11:00,